createdAt,value
2022-07-27T00:00:46.860Z,0.20
2022-07-27T00:03:13.697Z,0.30
2022-07-27T00:05:40.106Z,0.30
2022-07-27T00:08:06.850Z,0.30
2022-07-27T00:10:33.666Z,0.22
2022-07-27T00:13:00.121Z,0.30
2022-07-27T00:15:26.517Z,0.35
2022-07-27T00:17:53.616Z,0.40
2022-07-27T00:20:20.216Z,0.30
2022-07-27T00:22:54.094Z,0.30
2022-07-27T00:25:22.089Z,0.40
2022-07-27T00:27:48.677Z,0.50
2022-07-27T00:30:15.017Z,0.32
2022-07-27T00:32:41.542Z,0.45
2022-07-27T00:35:08.296Z,0.38
2022-07-27T00:37:34.933Z,0.20
2022-07-27T00:40:02.436Z,0.40
2022-07-27T00:42:28.858Z,0.28
2022-07-27T00:44:55.490Z,0.40
2022-07-27T00:47:22.604Z,0.40
2022-07-27T00:49:48.946Z,0.30
2022-07-27T00:52:15.924Z,0.30
2022-07-27T00:54:42.768Z,0.30
2022-07-27T00:57:13.261Z,0.30
2022-07-27T00:59:39.941Z,0.30
2022-07-27T01:02:11.266Z,0.40
2022-07-27T01:04:38.818Z,0.40
2022-07-27T01:07:06.235Z,0.30
2022-07-27T01:09:52.517Z,0.40
2022-07-27T01:12:20.841Z,0.50
2022-07-27T01:14:48.179Z,0.50
2022-07-27T01:17:14.982Z,0.40
2022-07-27T01:19:41.414Z,0.60
2022-07-27T01:22:08.146Z,0.43
2022-07-27T01:24:35.359Z,0.40
2022-07-27T01:27:02.729Z,0.40
2022-07-27T01:29:29.646Z,0.30
2022-07-27T01:31:56.335Z,0.30
2022-07-27T01:34:22.843Z,0.40
2022-07-27T01:36:49.730Z,0.30
2022-07-27T01:39:16.970Z,0.30
2022-07-27T01:41:43.469Z,0.50
2022-07-27T01:44:09.917Z,0.40
2022-07-27T01:46:36.345Z,0.30
2022-07-27T01:49:02.935Z,0.30
2022-07-27T01:51:29.446Z,0.30
2022-07-27T01:53:55.946Z,0.43
2022-07-27T01:56:22.419Z,0.30
2022-07-27T01:58:48.759Z,0.40
2022-07-27T02:01:15.176Z,0.28
2022-07-27T02:03:41.526Z,0.20
2022-07-27T02:06:08.884Z,0.30
2022-07-27T02:08:35.833Z,0.20
2022-07-27T02:11:37.473Z,0.20
2022-07-27T02:14:03.944Z,0.20
2022-07-27T02:16:30.436Z,0.25
2022-07-27T02:18:57.373Z,0.20
2022-07-27T02:21:23.725Z,0.20
2022-07-27T02:23:50.119Z,0.20
2022-07-27T02:26:16.496Z,0.20
2022-07-27T02:28:42.883Z,0.20
2022-07-27T02:31:09.220Z,0.30
2022-07-27T02:33:35.547Z,0.20
2022-07-27T02:36:02.409Z,0.30
2022-07-27T02:38:28.815Z,0.30
2022-07-27T02:40:55.202Z,0.30
2022-07-27T02:43:21.686Z,0.20
2022-07-27T02:45:49.615Z,0.20
2022-07-27T02:48:16.001Z,0.20
2022-07-27T02:50:42.473Z,0.38
2022-07-27T02:53:08.805Z,0.20
2022-07-27T02:55:35.192Z,0.20
2022-07-27T02:58:01.891Z,0.50
2022-07-27T03:00:28.288Z,0.40
2022-07-27T03:02:54.631Z,0.38
2022-07-27T03:05:21.033Z,0.30
2022-07-27T03:07:47.393Z,0.30
2022-07-27T03:10:13.739Z,0.20
2022-07-27T03:12:40.272Z,0.25
2022-07-27T03:15:06.852Z,0.20
2022-07-27T03:17:33.378Z,0.20
2022-07-27T03:19:59.932Z,0.40
2022-07-27T03:22:30.489Z,0.50
2022-07-27T03:24:57.118Z,0.30
2022-07-27T03:27:23.570Z,0.20
2022-07-27T03:29:49.905Z,0.30
2022-07-27T03:32:16.267Z,0.25
2022-07-27T03:34:42.697Z,0.30
2022-07-27T03:37:09.071Z,0.20
2022-07-27T03:39:35.394Z,0.40
2022-07-27T03:42:01.898Z,0.20
2022-07-27T03:44:28.243Z,0.25
2022-07-27T03:46:54.579Z,0.32
2022-07-27T03:49:21.006Z,0.20
2022-07-27T03:51:47.436Z,0.20
2022-07-27T03:54:13.753Z,0.20
2022-07-27T03:56:40.855Z,0.25
2022-07-27T03:59:07.191Z,0.20
2022-07-27T04:01:33.755Z,0.25
2022-07-27T04:04:00.259Z,0.60
2022-07-27T04:06:26.680Z,0.50
2022-07-27T04:08:56.195Z,0.30
2022-07-27T04:11:26.004Z,0.38
2022-07-27T04:13:56.243Z,0.57
2022-07-27T04:16:22.608Z,0.40
2022-07-27T04:18:49.016Z,0.40
2022-07-27T04:21:16.069Z,0.30
2022-07-27T04:23:42.472Z,0.30
2022-07-27T04:26:09.053Z,0.32
2022-07-27T04:28:35.379Z,0.30
2022-07-27T04:31:01.868Z,0.30
2022-07-27T04:33:28.286Z,0.40
2022-07-27T04:35:54.696Z,0.73
2022-07-27T04:38:21.020Z,0.60
2022-07-27T04:40:47.547Z,0.40
2022-07-27T04:43:13.890Z,0.50
2022-07-27T04:45:40.238Z,0.40
2022-07-27T04:48:07.586Z,0.40
2022-07-27T04:50:38.734Z,0.40
2022-07-27T04:53:05.101Z,0.37
2022-07-27T04:55:31.624Z,0.20
2022-07-27T04:57:57.949Z,0.30
2022-07-27T05:00:24.315Z,0.38
2022-07-27T05:02:50.673Z,0.20
2022-07-27T05:05:17.006Z,0.20
2022-07-27T05:07:43.336Z,0.30
2022-07-27T05:10:09.933Z,0.20
2022-07-27T05:12:36.266Z,0.30
2022-07-27T05:15:02.668Z,0.28
2022-07-27T05:17:29.124Z,0.30
2022-07-27T05:19:55.475Z,0.20
2022-07-27T05:22:21.866Z,0.30
2022-07-27T05:24:48.366Z,0.30
2022-07-27T05:27:14.690Z,0.43
2022-07-27T05:29:41.039Z,0.10
2022-07-27T05:32:07.619Z,0.32
2022-07-27T05:34:33.968Z,0.40
2022-07-27T05:37:00.394Z,0.35
2022-07-27T05:39:27.119Z,0.30
2022-07-27T05:41:53.450Z,0.30
2022-07-27T05:44:19.787Z,0.50
2022-07-27T05:46:46.228Z,0.68
2022-07-27T05:49:13.106Z,0.50
2022-07-27T05:51:39.788Z,0.40
2022-07-27T05:54:06.240Z,0.40
2022-07-27T05:56:32.595Z,0.32
2022-07-27T05:59:01.642Z,0.45
2022-07-27T06:01:31.592Z,0.40
2022-07-27T06:03:58.034Z,0.40
2022-07-27T06:06:43.013Z,0.40
2022-07-27T06:09:09.759Z,0.22
2022-07-27T06:11:36.843Z,0.45
2022-07-27T06:14:03.219Z,0.30
2022-07-27T06:16:29.754Z,0.50
2022-07-27T06:18:56.156Z,0.40
2022-07-27T06:21:27.985Z,0.40
2022-07-27T06:23:54.687Z,0.57
2022-07-27T06:26:21.286Z,0.30
2022-07-27T06:28:47.960Z,0.40
2022-07-27T06:31:15.037Z,0.30
2022-07-27T06:33:41.873Z,0.30
2022-07-27T06:36:11.676Z,0.40
2022-07-27T06:38:38.083Z,0.35
2022-07-27T06:41:04.422Z,0.30
2022-07-27T06:43:31.798Z,0.28
2022-07-27T06:46:01.145Z,0.17
2022-07-27T06:48:27.712Z,0.40
2022-07-27T06:50:54.194Z,0.40
2022-07-27T06:53:21.575Z,0.20
2022-07-27T06:55:48.400Z,0.20
2022-07-27T06:58:14.893Z,0.20
2022-07-27T07:00:41.316Z,0.30
2022-07-27T07:03:07.720Z,0.28
2022-07-27T07:05:40.874Z,0.20
2022-07-27T07:08:11.663Z,0.20
2022-07-27T07:10:39.245Z,0.17
2022-07-27T07:13:06.407Z,0.30
2022-07-27T07:15:33.159Z,0.52
2022-07-27T07:17:59.483Z,0.30
2022-07-27T07:20:25.916Z,0.10
2022-07-27T07:22:52.378Z,0.38
2022-07-27T07:25:18.927Z,0.60
2022-07-27T07:27:45.379Z,0.30
2022-07-27T07:30:12.036Z,0.30
2022-07-27T07:32:38.353Z,0.30
2022-07-27T07:35:05.005Z,0.30
2022-07-27T07:37:33.988Z,0.20
2022-07-27T07:40:13.099Z,0.47
2022-07-27T07:42:57.571Z,0.55
2022-07-27T07:45:24.423Z,0.30
2022-07-27T07:47:51.262Z,0.70
2022-07-27T07:50:18.037Z,0.30
2022-07-27T07:52:44.864Z,0.25
2022-07-27T07:55:11.352Z,0.68
2022-07-27T07:57:38.027Z,0.40
2022-07-27T08:00:05.210Z,0.40
2022-07-27T08:02:31.608Z,0.28
2022-07-27T08:04:59.765Z,0.30
2022-07-27T08:07:26.091Z,0.43
2022-07-27T08:09:52.576Z,0.50
2022-07-27T08:12:19.055Z,0.55
2022-07-27T08:14:45.408Z,0.32
2022-07-27T08:17:12.056Z,0.13
2022-07-27T08:19:40.431Z,0.25
2022-07-27T08:22:06.893Z,0.20
2022-07-27T08:24:33.354Z,0.30
2022-07-27T08:26:59.955Z,0.30
2022-07-27T08:29:36.884Z,0.20
2022-07-27T08:32:04.069Z,0.30
2022-07-27T08:34:32.508Z,0.40
2022-07-27T08:36:58.889Z,0.10
2022-07-27T08:40:20.088Z,0.20
2022-07-27T08:42:11.744Z,0.30
2022-07-27T08:44:41.465Z,0.20
2022-07-27T08:47:11.197Z,0.30
2022-07-27T08:49:43.655Z,0.40
2022-07-27T08:52:11.514Z,0.22
2022-07-27T08:54:41.359Z,0.10
2022-07-27T08:57:10.698Z,0.20
2022-07-27T08:59:37.176Z,0.30
2022-07-27T09:02:04.859Z,0.30
2022-07-27T09:04:31.479Z,0.20
2022-07-27T09:06:57.997Z,0.20
2022-07-27T09:09:24.757Z,0.28
2022-07-27T09:12:03.497Z,0.20
2022-07-27T09:14:31.011Z,0.20
2022-07-27T09:17:46.495Z,0.20
2022-07-27T09:20:17.962Z,0.20
2022-07-27T09:22:50.954Z,0.30
2022-07-27T09:25:32.843Z,0.38
2022-07-27T09:28:04.904Z,0.35
2022-07-27T09:30:31.494Z,0.30
2022-07-27T09:32:59.119Z,0.22
2022-07-27T09:35:30.180Z,0.50
2022-07-27T09:37:57.578Z,0.20
2022-07-27T09:40:25.786Z,0.28
2022-07-27T09:43:52.197Z,0.20
2022-07-27T09:45:55.839Z,0.20
2022-07-27T09:48:23.978Z,0.20
2022-07-27T09:51:02.512Z,0.10
2022-07-27T09:53:43.014Z,0.17
2022-07-27T09:56:11.645Z,0.00
2022-07-27T09:58:40.037Z,0.20
2022-07-27T10:01:07.013Z,0.40
2022-07-27T10:03:33.414Z,0.30
2022-07-27T10:06:00.016Z,0.20
2022-07-27T10:08:26.384Z,0.10
2022-07-27T10:10:52.762Z,0.10
2022-07-27T10:13:19.154Z,0.20
2022-07-27T10:15:45.914Z,0.32
2022-07-27T10:18:21.450Z,0.45
2022-07-27T10:20:53.067Z,0.30
2022-07-27T10:23:27.320Z,0.30
2022-07-27T10:26:12.590Z,0.35
2022-07-27T10:28:49.329Z,0.30
2022-07-27T10:31:17.599Z,0.20
2022-07-27T10:33:45.467Z,0.13
2022-07-27T10:36:24.137Z,0.10
2022-07-27T10:38:51.682Z,0.13
2022-07-27T10:41:28.517Z,0.10
2022-07-27T10:44:13.564Z,0.20
2022-07-27T10:46:50.762Z,0.30
2022-07-27T10:49:18.925Z,0.20
2022-07-27T10:51:45.490Z,0.40
2022-07-27T10:54:29.786Z,0.43
2022-07-27T10:56:57.354Z,0.30
2022-07-27T11:00:08.693Z,0.40
2022-07-27T11:02:40.745Z,0.22
2022-07-27T11:05:07.493Z,0.20
2022-07-27T11:07:44.158Z,0.20
2022-07-27T11:10:12.994Z,0.22
2022-07-27T11:12:40.736Z,0.20
2022-07-27T11:15:07.408Z,0.10
2022-07-27T11:20:22.745Z,0.20
2022-07-27T11:25:35.610Z,0.32
2022-07-27T11:28:07.130Z,0.50
2022-07-27T11:33:03.451Z,0.20
2022-07-27T11:35:29.799Z,0.30
2022-07-27T11:38:03.839Z,0.30
2022-07-27T11:41:08.085Z,0.20
2022-07-27T11:43:38.908Z,0.40
2022-07-27T11:46:16.705Z,0.50
2022-07-27T11:49:05.977Z,0.40
2022-07-27T11:51:36.431Z,0.28
2022-07-27T11:54:04.389Z,0.20
2022-07-27T11:56:35.023Z,0.20
2022-07-27T11:59:04.531Z,0.10
2022-07-27T12:01:33.594Z,0.20
2022-07-27T12:04:19.011Z,0.40
2022-07-27T12:06:46.763Z,0.20
2022-07-27T12:09:14.627Z,0.20
2022-07-27T12:11:46.783Z,0.13
2022-07-27T12:14:13.452Z,0.30
2022-07-27T12:16:40.190Z,0.13
2022-07-27T12:19:06.801Z,0.20
2022-07-27T12:21:33.751Z,0.20
2022-07-27T12:24:00.452Z,0.22
2022-07-27T12:26:30.135Z,0.38
2022-07-27T12:29:26.055Z,0.22
2022-07-27T12:31:54.305Z,0.10
2022-07-27T12:34:20.641Z,0.10
2022-07-27T12:36:47.006Z,0.10
2022-07-27T12:39:26.849Z,0.10
2022-07-27T12:42:03.742Z,0.22
2022-07-27T12:44:34.416Z,0.10
2022-07-27T12:47:27.332Z,0.20
2022-07-27T12:50:08.185Z,0.30
2022-07-27T12:52:35.528Z,0.20
2022-07-27T12:55:02.649Z,0.20
2022-07-27T12:57:53.897Z,0.20
2022-07-27T13:00:17.217Z,0.10
2022-07-27T13:02:44.245Z,0.20
2022-07-27T13:05:11.415Z,0.10
2022-07-27T13:07:38.821Z,0.10
2022-07-27T13:10:06.063Z,0.10
2022-07-27T13:12:32.615Z,0.10
2022-07-27T13:14:59.105Z,0.08
2022-07-27T13:17:25.659Z,0.10
2022-07-27T13:19:52.051Z,0.10
2022-07-27T13:22:18.425Z,0.00
2022-07-27T13:24:44.848Z,0.10
2022-07-27T13:27:12.035Z,0.03
2022-07-27T13:29:38.379Z,0.00
2022-07-27T13:32:05.063Z,0.10
2022-07-27T13:34:31.481Z,0.00
2022-07-27T13:36:57.868Z,0.10
2022-07-27T13:39:24.478Z,0.10
2022-07-27T13:41:55.196Z,0.20
2022-07-27T13:44:49.162Z,0.20
2022-07-27T13:47:09.125Z,0.10
2022-07-27T13:49:36.274Z,0.10
2022-07-27T13:52:02.797Z,0.10
2022-07-27T13:54:29.504Z,0.10
2022-07-27T13:56:55.841Z,0.00
2022-07-27T13:59:22.187Z,0.10
2022-07-27T14:01:52.576Z,0.17
2022-07-27T14:04:22.602Z,0.00
2022-07-27T14:06:48.938Z,0.00
2022-07-27T14:09:17.702Z,0.00
2022-07-27T14:11:52.775Z,0.20
2022-07-27T14:14:20.198Z,0.10
2022-07-27T14:16:51.823Z,0.05
2022-07-27T14:19:19.926Z,0.03
2022-07-27T14:21:47.713Z,0.10
2022-07-27T14:24:14.191Z,0.10
2022-07-27T14:26:40.557Z,0.10
2022-07-27T14:29:06.987Z,0.20
2022-07-27T14:31:34.946Z,0.20
2022-07-27T14:34:01.366Z,0.10
2022-07-27T14:36:27.806Z,0.10
2022-07-27T14:38:54.291Z,0.10
2022-07-27T14:41:20.740Z,0.10
2022-07-27T14:43:47.156Z,0.10
2022-07-27T14:46:13.546Z,0.10
2022-07-27T14:49:05.213Z,0.20
2022-07-27T14:51:26.534Z,0.20
2022-07-27T14:53:52.993Z,0.10
2022-07-27T14:56:20.947Z,0.10
2022-07-27T14:58:47.357Z,0.30
2022-07-27T15:01:16.676Z,0.13
2022-07-27T15:03:43.427Z,0.10
2022-07-27T15:06:09.857Z,0.00
2022-07-27T15:08:36.195Z,0.10
2022-07-27T15:11:02.603Z,0.10
2022-07-27T15:13:29.011Z,0.10
2022-07-27T15:15:57.258Z,0.08
2022-07-27T15:18:23.912Z,0.25
2022-07-27T15:20:50.329Z,0.10
2022-07-27T15:23:16.678Z,0.15
2022-07-27T15:25:43.019Z,0.10
2022-07-27T15:28:09.759Z,0.10
2022-07-27T15:30:38.554Z,0.17
2022-07-27T15:33:05.332Z,0.10
2022-07-27T15:35:31.783Z,0.10
2022-07-27T15:37:58.104Z,0.03
2022-07-27T15:40:36.870Z,0.10
2022-07-27T15:43:13.356Z,0.17
2022-07-27T15:45:40.432Z,0.00
2022-07-27T15:48:08.410Z,0.20
2022-07-27T15:50:35.495Z,0.25
2022-07-27T15:53:02.229Z,0.10
2022-07-27T15:55:28.546Z,0.10
2022-07-27T15:57:54.981Z,0.10
2022-07-27T16:00:21.418Z,0.10
2022-07-27T16:02:48.321Z,0.20
2022-07-27T16:05:14.782Z,0.17
2022-07-27T16:07:41.781Z,0.17
2022-07-27T16:10:08.470Z,0.13
2022-07-27T16:12:38.113Z,0.20
2022-07-27T16:15:05.222Z,0.13
2022-07-27T16:17:31.542Z,0.10
2022-07-27T16:19:57.918Z,0.00
2022-07-27T16:22:24.961Z,0.10
2022-07-27T16:24:51.655Z,0.08
2022-07-27T16:27:18.071Z,0.10
2022-07-27T16:29:44.566Z,0.00
2022-07-27T16:32:12.213Z,0.10
2022-07-27T16:34:39.193Z,0.10
2022-07-27T16:37:05.773Z,0.10
2022-07-27T16:39:33.537Z,0.10
2022-07-27T16:41:59.946Z,0.10
2022-07-27T16:44:26.425Z,0.10
2022-07-27T16:46:52.857Z,0.30
2022-07-27T16:49:19.405Z,0.30
2022-07-27T16:51:45.999Z,0.30
2022-07-27T16:54:13.009Z,0.20
2022-07-27T16:56:39.400Z,0.20
2022-07-27T16:59:05.960Z,0.10
2022-07-27T17:01:32.520Z,0.30
2022-07-27T17:03:59.031Z,0.10
2022-07-27T17:06:26.393Z,0.20
2022-07-27T17:08:52.883Z,0.10
2022-07-27T17:11:21.741Z,0.10
2022-07-27T17:13:49.085Z,0.17
2022-07-27T17:16:16.222Z,0.10
2022-07-27T17:18:42.649Z,0.10
2022-07-27T17:21:12.769Z,0.20
2022-07-27T17:23:40.000Z,0.20
2022-07-27T17:26:07.310Z,0.20
2022-07-27T17:28:36.694Z,0.10
2022-07-27T17:31:03.802Z,0.15
2022-07-27T17:33:30.851Z,0.10
2022-07-27T17:35:57.511Z,0.20
2022-07-27T17:38:23.844Z,0.20
2022-07-27T17:40:50.196Z,0.10
2022-07-27T17:43:16.669Z,0.20
2022-07-27T17:45:43.001Z,0.17
2022-07-27T17:48:09.331Z,0.10
2022-07-27T17:50:35.690Z,0.10
2022-07-27T17:53:02.036Z,0.10
2022-07-27T17:55:28.385Z,0.10
2022-07-27T17:57:55.321Z,0.20
2022-07-27T18:00:21.704Z,0.10
2022-07-27T18:02:48.048Z,0.08
2022-07-27T18:05:14.781Z,0.15
2022-07-27T18:07:41.218Z,0.10
2022-07-27T18:10:08.136Z,0.10
2022-07-27T18:12:35.518Z,0.10
2022-07-27T18:15:20.545Z,0.20
2022-07-27T18:17:46.886Z,0.08
2022-07-27T18:20:13.316Z,0.13
2022-07-27T18:22:39.681Z,0.10
2022-07-27T18:25:06.980Z,0.10
2022-07-27T18:27:35.267Z,0.10
2022-07-27T18:30:02.537Z,0.10
2022-07-27T18:32:29.041Z,0.20
2022-07-27T18:34:55.657Z,0.10
2022-07-27T18:37:22.224Z,0.10
2022-07-27T18:39:48.660Z,0.10
2022-07-27T18:42:14.996Z,0.10
2022-07-27T18:44:41.393Z,0.10
2022-07-27T18:47:07.843Z,0.17
2022-07-27T18:49:34.407Z,0.17
2022-07-27T18:52:00.829Z,0.20
2022-07-27T18:54:27.271Z,0.10
2022-07-27T18:56:56.081Z,0.10
2022-07-27T18:59:22.480Z,0.10
2022-07-27T19:01:48.990Z,0.10
2022-07-27T19:04:16.817Z,0.10
2022-07-27T19:06:45.035Z,0.20
2022-07-27T19:09:12.991Z,0.10
2022-07-27T19:11:39.617Z,0.10
2022-07-27T19:14:05.968Z,0.20
2022-07-27T19:16:34.080Z,0.10
2022-07-27T19:19:00.529Z,0.20
2022-07-27T19:21:26.904Z,0.20
2022-07-27T19:23:53.490Z,0.17
2022-07-27T19:26:19.848Z,0.20
2022-07-27T19:28:46.275Z,0.20
2022-07-27T19:31:22.914Z,0.43
2022-07-27T19:33:51.026Z,0.20
2022-07-27T19:36:17.499Z,0.10
2022-07-27T19:38:43.825Z,0.20
2022-07-27T19:41:10.194Z,0.20
2022-07-27T19:43:36.559Z,0.10
2022-07-27T19:46:03.085Z,0.10
2022-07-27T19:48:29.508Z,0.10
2022-07-27T19:51:04.725Z,0.10
2022-07-27T19:53:35.009Z,0.63
2022-07-27T19:56:01.464Z,0.10
2022-07-27T19:58:27.867Z,0.10
2022-07-27T20:00:55.752Z,0.10
2022-07-27T20:03:22.248Z,0.10
2022-07-27T20:05:48.779Z,0.10
2022-07-27T20:08:15.376Z,0.10
2022-07-27T20:10:42.615Z,0.17
2022-07-27T20:13:10.036Z,0.13
2022-07-27T20:15:36.438Z,0.10
2022-07-27T20:18:02.928Z,0.10
2022-07-27T20:20:29.307Z,0.10
2022-07-27T20:22:55.651Z,0.10
2022-07-27T20:25:22.924Z,0.10
2022-07-27T20:27:49.339Z,0.10
2022-07-27T20:30:17.198Z,0.10
2022-07-27T20:32:44.237Z,0.10
2022-07-27T20:35:10.711Z,0.10
2022-07-27T20:37:37.190Z,0.10
2022-07-27T20:40:05.368Z,0.10
2022-07-27T20:42:32.161Z,0.10
2022-07-27T20:44:58.628Z,0.10
2022-07-27T20:47:25.149Z,0.10
2022-07-27T20:49:51.561Z,0.10
2022-07-27T20:52:17.945Z,0.20
2022-07-27T20:54:44.338Z,0.22
2022-07-27T20:57:10.742Z,0.20
2022-07-27T20:59:37.173Z,0.10
2022-07-27T21:02:03.618Z,0.20
2022-07-27T21:04:30.010Z,0.05
2022-07-27T21:06:56.530Z,0.20
2022-07-27T21:09:23.073Z,0.10
2022-07-27T21:11:49.404Z,0.20
2022-07-27T21:14:15.765Z,0.10
2022-07-27T21:16:42.220Z,0.10
2022-07-27T21:19:08.644Z,0.10
2022-07-27T21:21:34.991Z,0.10
2022-07-27T21:24:17.686Z,0.10
2022-07-27T21:26:49.058Z,0.10
2022-07-27T21:29:15.566Z,0.10
2022-07-27T21:31:42.017Z,0.10
2022-07-27T21:34:08.812Z,0.10
2022-07-27T21:36:35.198Z,0.17
2022-07-27T21:39:01.585Z,0.10
2022-07-27T21:41:27.896Z,0.10
2022-07-27T21:43:55.503Z,0.10
2022-07-27T21:46:22.338Z,0.20
2022-07-27T21:48:48.875Z,0.10
2022-07-27T21:51:18.147Z,0.10
2022-07-27T21:53:45.375Z,0.10
2022-07-27T21:56:13.525Z,0.10
2022-07-27T21:58:40.041Z,0.17
2022-07-27T22:01:08.958Z,0.10
2022-07-27T22:03:36.861Z,0.10
2022-07-27T22:06:04.511Z,0.10
2022-07-27T22:08:31.390Z,0.10
2022-07-27T22:10:58.298Z,0.10
2022-07-27T22:13:24.894Z,0.10
2022-07-27T22:15:51.293Z,0.10
2022-07-27T22:18:17.985Z,0.10
2022-07-27T22:20:44.389Z,0.10
2022-07-27T22:23:10.781Z,0.10
2022-07-27T22:25:37.262Z,0.00
2022-07-27T22:28:03.778Z,0.00
2022-07-27T22:30:30.327Z,0.10
2022-07-27T22:32:56.679Z,0.10
2022-07-27T22:35:23.127Z,0.10
2022-07-27T22:37:49.699Z,0.20
2022-07-27T22:40:16.031Z,0.00
2022-07-27T22:42:43.984Z,0.10
2022-07-27T22:45:11.073Z,0.10
2022-07-27T22:47:38.141Z,0.10
2022-07-27T22:50:05.216Z,0.10
2022-07-27T22:52:31.654Z,0.00
2022-07-27T22:54:58.006Z,0.10
2022-07-27T22:57:25.671Z,0.10
2022-07-27T22:59:52.620Z,0.10
2022-07-27T23:02:19.012Z,0.10
2022-07-27T23:04:45.595Z,0.10
2022-07-27T23:07:11.987Z,0.10
2022-07-27T23:09:38.317Z,0.10
2022-07-27T23:12:04.869Z,0.03
2022-07-27T23:14:31.246Z,0.10
2022-07-27T23:16:57.804Z,0.10
2022-07-27T23:19:24.193Z,0.10
2022-07-27T23:21:50.659Z,0.10
2022-07-27T23:24:29.061Z,0.10
2022-07-27T23:26:56.034Z,0.10
2022-07-27T23:29:22.378Z,0.10
2022-07-27T23:31:48.754Z,0.10
2022-07-27T23:34:15.664Z,0.10
2022-07-27T23:36:42.686Z,0.10
2022-07-27T23:39:09.176Z,0.10
2022-07-27T23:41:35.580Z,0.10
2022-07-27T23:44:01.913Z,0.10
2022-07-27T23:46:28.361Z,0.10
2022-07-27T23:48:54.881Z,0.10
2022-07-27T23:51:21.320Z,0.10
2022-07-27T23:53:48.047Z,0.10
2022-07-27T23:56:14.576Z,0.10
2022-07-27T23:58:40.931Z,0.10
